Time;durP1;ratioP1;P1;durP2;ratioP2;P2;SDS_P1;SDS_P2;PMS_P1;PMS_P2;Temp;Humidity;BMP_temperature;BMP_pressure;BME280_temperature;BME280_humidity;BME280_pressure;Samples;Min_cycle;Max_cycle;Signal;HPM_P1;HPM_P2
2023/08/11 00:03:51;;;;;;;7.82;5.82;;;20.50;91.00;;;;;;10353871;28;20498;-67
2023/08/11 00:08:54;;;;;;;7.07;6.07;;;20.50;91.00;;;;;;10353141;28;20431;-67
2023/08/11 00:13:55;;;;;;;7.63;6.30;;;20.50;91.00;;;;;;10365869;28;20440;-67
2023/08/11 00:18:56;;;;;;;7.57;6.20;;;20.40;91.00;;;;;;10364889;28;20496;-67
2023/08/11 00:23:57;;;;;;;7.83;6.67;;;20.40;91.00;;;;;;10347463;28;20827;-67
2023/08/11 00:28:57;;;;;;;8.00;6.40;;;20.40;91.00;;;;;;10347784;28;20409;-66
2023/08/11 00:33:58;;;;;;;8.63;6.50;;;20.40;91.00;;;;;;10349194;28;20575;-67
2023/08/11 00:39:00;;;;;;;7.00;6.30;;;20.40;91.00;;;;;;10365210;28;20413;-67
2023/08/11 00:44:01;;;;;;;8.15;6.53;;;20.40;91.00;;;;;;10364763;28;21011;-67
2023/08/11 00:49:01;;;;;;;7.43;6.57;;;20.30;91.00;;;;;;10359885;28;20423;-66
2023/08/11 00:54:04;;;;;;;7.00;6.28;;;20.30;91.00;;;;;;10361358;28;20419;-68
2023/08/11 00:59:04;;;;;;;7.07;6.37;;;20.30;91.10;;;;;;10356551;28;20463;-67
2023/08/11 01:04:07;;;;;;;7.93;6.43;;;20.30;91.10;;;;;;10363887;28;20400;-66
2023/08/11 01:09:16;;;;;;;8.48;6.82;;;20.30;91.10;;;;;;10344443;28;20436;-67
2023/08/11 01:14:33;;;;;;;9.15;6.90;;;20.20;91.00;;;;;;10359055;28;20869;-67
2023/08/11 01:19:35;;;;;;;9.57;7.03;;;20.20;91.10;;;;;;10357840;28;20428;-67
2023/08/11 01:24:37;;;;;;;7.38;6.55;;;20.20;91.10;;;;;;10360432;28;20400;-66
2023/08/11 01:29:39;;;;;;;7.57;6.70;;;20.20;91.10;;;;;;10358309;28;20402;-66
2023/08/11 01:34:39;;;;;;;8.00;6.60;;;20.20;91.20;;;;;;10358024;28;20400;-66
2023/08/11 01:39:40;;;;;;;7.45;6.65;;;20.20;91.20;;;;;;10359595;28;20791;-67
2023/08/11 01:44:42;;;;;;;8.63;7.13;;;20.20;91.20;;;;;;10360714;28;20401;-66
2023/08/11 01:49:43;;;;;;;7.82;6.80;;;20.20;91.20;;;;;;10358241;28;20427;-66
2023/08/11 01:54:44;;;;;;;8.93;7.15;;;20.10;91.20;;;;;;10358411;28;20483;-67
2023/08/11 01:59:45;;;;;;;9.30;7.03;;;20.10;91.20;;;;;;10358357;28;20420;-67
2023/08/11 02:04:45;;;;;;;8.57;6.80;;;20.20;91.30;;;;;;10359232;28;20459;-67
2023/08/11 02:09:46;;;;;;;7.83;7.03;;;20.10;91.30;;;;;;10359606;28;20412;-67
2023/08/11 02:14:47;;;;;;;7.73;6.93;;;20.00;91.30;;;;;;10359291;28;20404;-67
2023/08/11 02:19:47;;;;;;;7.47;6.63;;;20.00;91.30;;;;;;10358471;28;20436;-67
2023/08/11 02:24:48;;;;;;;8.73;7.10;;;20.00;91.30;;;;;;10345442;28;20397;-67
2023/08/11 02:29:49;;;;;;;8.30;7.30;;;20.00;91.30;;;;;;10357424;28;20408;-65
2023/08/11 02:34:49;;;;;;;8.50;6.93;;;20.00;91.30;;;;;;10356956;28;20413;-66
2023/08/11 02:39:50;;;;;;;8.13;6.70;;;20.00;91.30;;;;;;10351661;28;20444;-67
2023/08/11 02:44:51;;;;;;;8.35;7.45;;;20.00;91.40;;;;;;10357034;28;20652;-66
2023/08/11 02:49:52;;;;;;;7.35;6.50;;;20.00;91.40;;;;;;10347047;28;20857;-67
2023/08/11 02:54:53;;;;;;;7.83;7.03;;;19.90;91.40;;;;;;10358075;28;20686;-67
2023/08/11 02:59:53;;;;;;;7.87;7.07;;;19.90;91.40;;;;;;10356126;28;20471;-66
2023/08/11 03:04:54;;;;;;;8.23;7.30;;;19.90;91.40;;;;;;10357675;28;20784;-67
2023/08/11 03:09:55;;;;;;;7.63;6.73;;;19.90;91.40;;;;;;10358134;28;20659;-67
2023/08/11 03:14:56;;;;;;;9.27;7.20;;;19.90;91.40;;;;;;10355900;28;20448;-67
2023/08/11 03:19:57;;;;;;;8.32;7.25;;;19.90;91.50;;;;;;10355066;28;20419;-67
2023/08/11 03:24:58;;;;;;;7.53;6.73;;;20.20;91.50;;;;;;10355281;28;20404;-65
2023/08/11 03:29:59;;;;;;;8.27;6.88;;;19.80;91.50;;;;;;10331621;28;20411;-67
2023/08/11 03:35:00;;;;;;;8.23;7.40;;;19.80;91.50;;;;;;10355917;28;20888;-67
2023/08/11 03:40:06;;;;;;;9.25;7.05;;;19.80;91.50;;;;;;10346555;28;20416;-66
2023/08/11 03:45:07;;;;;;;7.53;6.73;;;19.80;91.60;;;;;;10364158;28;20445;-67
2023/08/11 03:50:08;;;;;;;8.40;6.85;;;19.80;91.50;;;;;;10362891;28;20409;-67
2023/08/11 03:55:09;;;;;;;7.60;6.90;;;19.80;91.50;;;;;;10362883;28;20814;-67
2023/08/11 04:00:14;;;;;;;8.87;7.53;;;19.70;91.50;;;;;;10368876;28;20486;-68
2023/08/11 04:05:16;;;;;;;8.05;7.15;;;19.70;91.50;;;;;;10367168;28;20470;-67
2023/08/11 04:10:17;;;;;;;7.63;6.87;;;19.70;91.50;;;;;;10370839;28;20489;-67
2023/08/11 04:15:18;;;;;;;8.05;7.25;;;19.70;91.50;;;;;;10348917;28;20981;-66
2023/08/11 04:20:18;;;;;;;7.78;7.00;;;19.70;91.60;;;;;;10346656;28;20434;-69
2023/08/11 04:25:19;;;;;;;8.80;7.40;;;19.70;91.60;;;;;;10366861;28;20404;-67
2023/08/11 04:30:20;;;;;;;8.17;6.77;;;19.70;91.80;;;;;;10366892;28;20958;-67
2023/08/11 04:35:20;;;;;;;8.43;7.23;;;19.60;91.70;;;;;;10361695;28;20408;-67
2023/08/11 04:40:21;;;;;;;9.40;7.40;;;19.70;91.70;;;;;;10362631;28;20420;-67
2023/08/11 04:45:22;;;;;;;8.47;7.57;;;19.70;91.70;;;;;;10367931;28;20479;-67
2023/08/11 04:50:23;;;;;;;9.05;7.30;;;19.70;91.70;;;;;;10360555;28;20910;-66
2023/08/11 04:55:23;;;;;;;9.48;8.00;;;19.60;91.60;;;;;;10366536;28;20409;-67
2023/08/11 05:00:24;;;;;;;9.07;7.67;;;19.60;91.80;;;;;;10366861;28;20411;-65
2023/08/11 05:05:26;;;;;;;9.10;7.33;;;19.60;91.90;;;;;;10366416;28;20680;-66
2023/08/11 05:10:26;;;;;;;9.43;7.77;;;19.60;91.80;;;;;;10364464;28;20404;-67
2023/08/11 05:15:27;;;;;;;8.98;7.53;;;19.60;91.80;;;;;;10368406;28;20396;-67
2023/08/11 05:20:28;;;;;;;8.20;7.28;;;20.30;92.00;;;;;;10365242;28;20474;-67
2023/08/11 05:25:28;;;;;;;7.82;7.03;;;19.60;91.80;;;;;;10363379;28;21711;-66
2023/08/11 05:30:29;;;;;;;9.18;7.40;;;19.60;91.70;;;;;;10364856;28;20442;-67
2023/08/11 05:35:29;;;;;;;8.38;7.53;;;19.60;91.80;;;;;;10364972;28;20416;-67
2023/08/11 05:40:30;;;;;;;8.40;7.50;;;19.60;91.70;;;;;;10362857;28;20426;-67
2023/08/11 05:45:31;;;;;;;8.07;7.27;;;19.60;91.70;;;;;;10362234;28;20404;-66
2023/08/11 05:50:32;;;;;;;8.77;7.30;;;19.60;91.70;;;;;;10361739;28;20463;-67
2023/08/11 05:55:33;;;;;;;9.40;7.60;;;19.60;91.70;;;;;;10359202;28;20436;-67
2023/08/11 06:00:33;;;;;;;8.83;7.47;;;19.60;91.70;;;;;;10361505;28;20495;-67
2023/08/11 06:05:34;;;;;;;8.07;7.20;;;19.60;91.70;;;;;;10344569;28;20971;-67
2023/08/11 06:10:35;;;;;;;8.00;7.17;;;19.60;91.70;;;;;;10358459;28;20407;-67
2023/08/11 06:15:36;;;;;;;8.82;7.30;;;19.40;91.70;;;;;;10362247;28;20408;-67
2023/08/11 06:20:36;;;;;;;9.57;7.80;;;19.60;91.70;;;;;;10358330;28;20487;-67
2023/08/11 06:25:37;;;;;;;8.10;7.30;;;19.60;91.70;;;;;;10356096;28;20463;-66
2023/08/11 06:30:38;;;;;;;9.10;7.77;;;19.60;91.70;;;;;;10349163;28;20494;-67
2023/08/11 06:35:38;;;;;;;8.87;7.23;;;19.60;91.70;;;;;;10359336;28;20395;-67
2023/08/11 06:40:39;;;;;;;8.60;7.67;;;19.60;91.70;;;;;;10353706;28;20413;-67
2023/08/11 06:45:41;;;;;;;8.27;7.40;;;19.60;91.70;;;;;;10358425;28;20768;-66
2023/08/11 06:50:42;;;;;;;9.30;7.70;;;19.70;91.70;;;;;;10356599;28;20841;-66
2023/08/11 06:55:42;;;;;;;8.83;7.93;;;19.70;91.80;;;;;;10360476;28;20416;-66
2023/08/11 07:00:43;;;;;;;9.07;7.77;;;19.70;91.80;;;;;;10359789;28;20413;-67
2023/08/11 07:05:44;;;;;;;8.00;7.20;;;19.70;91.80;;;;;;10358861;28;20420;-67
2023/08/11 07:10:44;;;;;;;9.00;7.95;;;19.80;91.70;;;;;;10358820;28;20495;-67
2023/08/11 07:15:45;;;;;;;9.05;7.72;;;19.80;91.80;;;;;;10367170;28;20404;-67
2023/08/11 07:20:46;;;;;;;9.53;7.73;;;19.80;91.90;;;;;;10365956;28;20485;-67
2023/08/11 07:25:46;;;;;;;10.43;8.17;;;19.80;91.90;;;;;;10361018;28;20416;-66
2023/08/11 07:30:47;;;;;;;9.27;8.00;;;19.90;92.00;;;;;;10360880;28;20408;-66
2023/08/11 07:35:47;;;;;;;9.17;7.70;;;19.90;92.00;;;;;;10356252;28;20412;-67
2023/08/11 07:40:48;;;;;;;9.03;7.53;;;19.90;92.10;;;;;;10361484;28;20427;-67
2023/08/11 07:45:49;;;;;;;9.23;7.37;;;19.90;92.00;;;;;;10366733;28;20400;-67
2023/08/11 07:50:49;;;;;;;8.83;7.47;;;20.00;92.10;;;;;;10360305;28;20428;-67
2023/08/11 07:55:50;;;;;;;9.27;7.57;;;20.00;92.20;;;;;;10367391;28;20419;-65
2023/08/11 08:00:51;;;;;;;8.57;7.25;;;20.10;92.10;;;;;;10367773;28;20416;-67
2023/08/11 08:05:51;;;;;;;7.93;7.10;;;20.10;92.20;;;;;;10351164;28;20410;-67
2023/08/11 08:10:52;;;;;;;9.18;7.47;;;20.20;92.20;;;;;;10370343;28;20446;-67
2023/08/11 08:15:53;;;;;;;8.45;7.43;;;20.20;92.20;;;;;;10365265;28;20928;-67
2023/08/11 08:20:53;;;;;;;8.27;7.30;;;20.30;92.30;;;;;;10367532;28;20432;-67
2023/08/11 08:25:54;;;;;;;8.03;7.00;;;20.30;92.30;;;;;;10344299;28;20408;-67
2023/08/11 08:30:55;;;;;;;7.77;6.97;;;20.40;92.30;;;;;;10373245;28;20464;-68
2023/08/11 08:35:55;;;;;;;8.57;7.03;;;20.40;92.30;;;;;;10363252;28;20416;-68
2023/08/11 08:40:57;;;;;;;7.35;6.57;;;20.50;92.30;;;;;;10363896;28;20420;-67
2023/08/11 08:46:02;;;;;;;8.57;6.63;;;20.60;92.30;;;;;;10361450;28;20403;-67
2023/08/11 08:51:03;;;;;;;7.78;6.57;;;20.60;92.20;;;;;;10362405;28;20416;-66
2023/08/11 08:56:05;;;;;;;6.63;5.93;;;20.60;92.20;;;;;;10364471;28;20918;-67
2023/08/11 09:01:07;;;;;;;8.50;6.32;;;20.70;92.20;;;;;;10346727;28;20504;-66
2023/08/11 09:06:07;;;;;;;6.93;6.00;;;20.80;92.20;;;;;;10366773;28;20979;-67
2023/08/11 09:11:08;;;;;;;8.27;6.20;;;20.80;92.20;;;;;;10361995;28;20425;-67
2023/08/11 09:16:09;;;;;;;7.60;6.20;;;21.00;92.20;;;;;;10349032;28;20444;-68
2023/08/11 09:21:11;;;;;;;8.45;5.97;;;20.90;92.20;;;;;;10349500;28;20452;-66
2023/08/11 09:26:12;;;;;;;6.72;5.82;;;21.00;92.20;;;;;;10360752;28;20456;-67
2023/08/11 09:31:12;;;;;;;8.13;6.18;;;21.00;92.20;;;;;;10357768;28;20499;-67
2023/08/11 09:36:13;;;;;;;7.67;6.10;;;21.10;92.20;;;;;;10362388;28;20816;-67
2023/08/11 09:41:15;;;;;;;9.10;6.10;;;21.10;92.20;;;;;;10364699;28;20420;-66
2023/08/11 09:46:16;;;;;;;6.57;5.60;;;21.20;92.20;;;;;;10362407;28;20985;-66
2023/08/11 09:51:19;;;;;;;7.55;5.75;;;21.20;92.20;;;;;;10338982;28;20431;-67
2023/08/11 09:56:22;;;;;;;6.45;5.40;;;21.30;92.20;;;;;;10344784;28;20408;-67
2023/08/11 10:01:25;;;;;;;7.32;5.40;;;21.40;92.20;;;;;;10360728;28;20408;-66
2023/08/11 10:06:29;;;;;;;8.65;5.55;;;21.40;92.20;;;;;;10357246;28;20415;-67
2023/08/11 10:11:33;;;;;;;6.63;5.32;;;21.50;92.20;;;;;;10361703;28;20432;-67
2023/08/11 10:16:35;;;;;;;6.40;5.22;;;21.60;92.20;;;;;;10358879;28;20389;-67
2023/08/11 10:21:37;;;;;;;7.33;5.10;;;21.60;92.20;;;;;;10361586;28;20413;-66
2023/08/11 10:26:38;;;;;;;6.45;5.25;;;21.70;92.10;;;;;;10359494;28;20401;-68
2023/08/11 10:31:56;;;;;;;6.18;5.07;;;21.80;92.10;;;;;;10358765;28;20405;-65
2023/08/11 10:36:58;;;;;;;5.68;5.03;;;21.90;92.00;;;;;;10358852;28;20412;-67
2023/08/11 10:42:02;;;;;;;5.65;4.50;;;21.90;92.10;;;;;;10362223;28;20470;-65
2023/08/11 10:47:03;;;;;;;6.87;4.70;;;22.00;92.00;;;;;;10352113;28;20403;-67
2023/08/11 10:52:05;;;;;;;5.38;4.55;;;22.10;92.00;;;;;;10356770;28;20793;-67
2023/08/11 10:57:06;;;;;;;6.13;4.40;;;22.20;92.00;;;;;;10353366;28;20884;-68
2023/08/11 11:02:06;;;;;;;5.40;4.68;;;22.20;92.00;;;;;;10358004;28;20482;-67
2023/08/11 11:07:07;;;;;;;5.88;4.72;;;22.30;92.00;;;;;;10356466;28;20401;-66
2023/08/11 11:12:07;;;;;;;6.63;4.47;;;22.40;92.00;;;;;;10338721;28;20774;-68
2023/08/11 11:17:08;;;;;;;5.55;4.55;;;22.40;92.00;;;;;;10356399;28;20822;-68
2023/08/11 11:22:09;;;;;;;6.93;4.97;;;22.50;92.00;;;;;;10351524;28;20411;-68
2023/08/11 11:27:10;;;;;;;6.00;4.72;;;22.60;92.00;;;;;;10356328;28;21291;-68
2023/08/11 11:32:11;;;;;;;6.40;4.25;;;22.70;92.20;;;;;;10344162;28;20408;-67
2023/08/11 11:37:12;;;;;;;5.90;4.50;;;22.80;92.00;;;;;;10358839;28;20473;-67
2023/08/11 11:42:13;;;;;;;6.10;4.25;;;22.90;92.00;;;;;;10353538;28;20404;-67
2023/08/11 11:47:13;;;;;;;5.95;4.40;;;22.90;92.00;;;;;;10355776;28;20758;-67
2023/08/11 11:52:14;;;;;;;5.85;4.47;;;23.00;92.00;;;;;;10353788;28;20519;-66
2023/08/11 11:57:16;;;;;;;5.32;4.20;;;23.10;92.00;;;;;;10353280;28;20394;-68
2023/08/11 12:02:17;;;;;;;9.00;4.40;;;23.30;92.70;;;;;;10361451;28;20495;-68
2023/08/11 12:07:34;;;;;;;5.80;4.60;;;23.50;92.10;;;;;;10361399;28;20408;-68
2023/08/11 12:12:35;;;;;;;5.35;4.30;;;23.60;92.00;;;;;;10360174;28;20440;-68
2023/08/11 12:17:36;;;;;;;6.78;4.60;;;23.60;92.00;;;;;;10346477;28;20887;-68
2023/08/11 12:22:37;;;;;;;7.65;4.70;;;23.60;92.00;;;;;;10359407;28;20440;-68
2023/08/11 12:27:38;;;;;;;5.68;4.50;;;23.70;92.00;;;;;;10341102;28;20924;-69
2023/08/11 12:32:38;;;;;;;7.20;4.53;;;23.70;92.00;;;;;;10361791;28;20545;-69
2023/08/11 12:37:39;;;;;;;6.17;4.27;;;23.80;92.10;;;;;;10365614;28;20412;-68
2023/08/11 12:42:40;;;;;;;6.00;4.10;;;24.40;92.60;;;;;;10361387;28;20408;-72
2023/08/11 12:47:41;;;;;;;8.47;4.00;;;25.10;92.50;;;;;;10360539;28;20880;-70
2023/08/11 12:52:41;;;;;;;5.63;4.00;;;25.60;91.10;;;;;;10351349;28;20597;-71
2023/08/11 12:57:42;;;;;;;5.80;3.60;;;25.90;90.80;;;;;;10360129;28;20522;-69
2023/08/11 13:02:43;;;;;;;6.80;3.97;;;26.00;90.60;;;;;;10360372;28;20423;-69
2023/08/11 13:07:43;;;;;;;5.50;3.95;;;26.10;90.80;;;;;;10359158;28;20408;-70
2023/08/11 13:12:45;;;;;;;7.10;3.73;;;26.20;90.80;;;;;;10358052;28;20401;-69
2023/08/11 13:17:46;;;;;;;4.80;3.60;;;26.20;90.30;;;;;;10361143;28;20777;-69
2023/08/11 13:22:46;;;;;;;5.50;3.70;;;26.20;90.20;;;;;;10360628;28;20495;-68
2023/08/11 13:27:47;;;;;;;6.17;3.60;;;26.20;90.10;;;;;;10356417;28;20416;-69
2023/08/11 13:32:48;;;;;;;5.15;3.80;;;26.20;90.10;;;;;;10359067;28;20412;-68
2023/08/11 13:37:48;;;;;;;4.30;3.50;;;26.30;90.30;;;;;;10359510;28;20412;-69
2023/08/11 13:42:49;;;;;;;5.70;3.70;;;26.30;90.10;;;;;;10360492;28;20397;-66
2023/08/11 13:47:50;;;;;;;5.33;3.57;;;26.30;90.30;;;;;;10358811;28;20422;-69
2023/08/11 13:52:50;;;;;;;5.30;3.30;;;26.60;90.50;;;;;;10356185;28;20417;-68
2023/08/11 13:57:51;;;;;;;6.55;3.60;;;26.80;90.10;;;;;;10357168;28;20415;-68
2023/08/11 14:02:52;;;;;;;4.50;3.30;;;26.90;89.70;;;;;;10353820;28;20776;-69
2023/08/11 14:07:52;;;;;;;6.00;3.57;;;26.90;89.90;;;;;;10356114;28;20417;-68
2023/08/11 14:12:53;;;;;;;6.33;3.50;;;26.80;89.80;;;;;;10357371;28;20504;-69
2023/08/11 14:17:54;;;;;;;4.03;3.33;;;26.70;89.30;;;;;;10356781;28;20500;-69
2023/08/11 14:22:55;;;;;;;5.05;3.45;;;26.70;89.50;;;;;;10358046;28;20852;-69
2023/08/11 14:27:55;;;;;;;5.43;3.42;;;26.60;89.00;;;;;;10365134;28;20843;-68
2023/08/11 14:32:56;;;;;;;4.60;3.53;;;26.70;89.40;;;;;;10356844;28;20409;-69
2023/08/11 14:37:58;;;;;;;4.33;3.37;;;26.80;89.90;;;;;;10337709;28;20420;-68
2023/08/11 14:42:59;;;;;;;4.15;3.42;;;26.80;90.10;;;;;;10357602;28;20836;-68
2023/08/11 14:47:59;;;;;;;4.25;3.40;;;27.00;89.40;;;;;;10358870;28;20487;-68
2023/08/11 14:53:00;;;;;;;4.95;3.40;;;27.30;88.30;;;;;;10362039;28;20452;-68
2023/08/11 14:58:01;;;;;;;6.27;3.67;;;27.60;88.60;;;;;;10354741;28;20417;-66
2023/08/11 15:03:01;;;;;;;8.53;3.87;;;27.60;88.20;;;;;;10355272;28;20493;-66
2023/08/11 15:08:02;;;;;;;5.43;3.63;;;27.40;87.90;;;;;;10360038;28;20806;-66
2023/08/11 15:13:03;;;;;;;6.90;3.80;;;27.50;88.50;;;;;;10363884;28;20408;-66
2023/08/11 15:18:04;;;;;;;4.55;3.70;;;27.00;89.20;;;;;;10363423;28;20471;-65
2023/08/11 15:23:05;;;;;;;5.45;3.95;;;26.90;90.00;;;;;;10359418;28;20425;-65
2023/08/11 15:28:05;;;;;;;6.77;4.00;;;26.70;90.30;;;;;;10360256;28;20595;-66
2023/08/11 15:33:06;;;;;;;4.75;4.10;;;26.60;90.40;;;;;;10360467;28;20442;-67
2023/08/11 15:38:07;;;;;;;5.37;3.77;;;26.50;90.60;;;;;;10369492;28;20470;-66
2023/08/11 15:43:07;;;;;;;5.83;4.07;;;26.40;90.80;;;;;;10369260;28;20403;-68
2023/08/11 15:48:08;;;;;;;5.68;3.83;;;26.30;90.90;;;;;;10370135;28;20404;-67
2023/08/11 15:53:08;;;;;;;6.30;4.35;;;26.30;91.00;;;;;;10370770;28;20424;-68
2023/08/11 15:58:09;;;;;;;5.03;3.93;;;26.20;91.00;;;;;;10353446;28;20776;-66
2023/08/11 16:03:10;;;;;;;5.40;4.13;;;26.20;91.20;;;;;;10366411;28;20495;-67
2023/08/11 16:08:10;;;;;;;4.50;4.10;;;26.20;91.20;;;;;;10367675;28;20495;-68
2023/08/11 16:13:11;;;;;;;5.20;4.10;;;26.10;91.20;;;;;;10364036;28;20415;-66
2023/08/11 16:18:11;;;;;;;5.53;4.13;;;26.10;91.30;;;;;;10370076;28;20412;-68
2023/08/11 16:23:13;;;;;;;4.88;4.20;;;26.10;91.30;;;;;;10353553;28;20891;-66
2023/08/11 16:28:15;;;;;;;4.90;4.00;;;26.50;91.60;;;;;;10365568;28;20511;-65
2023/08/11 16:33:15;;;;;;;4.78;4.28;;;26.00;91.50;;;;;;10364123;28;20392;-66
2023/08/11 16:38:16;;;;;;;5.88;4.50;;;26.00;91.60;;;;;;10366539;28;21607;-66
2023/08/11 16:43:17;;;;;;;5.82;4.20;;;25.90;91.70;;;;;;10349954;28;20435;-66
2023/08/11 16:48:18;;;;;;;5.80;4.37;;;25.80;91.70;;;;;;10363149;28;20924;-66
2023/08/11 16:53:18;;;;;;;5.60;4.67;;;25.80;91.90;;;;;;10364222;28;20412;-66
2023/08/11 16:58:19;;;;;;;5.40;4.37;;;25.70;91.90;;;;;;10365213;28;20413;-66
2023/08/11 17:03:21;;;;;;;6.50;4.60;;;25.70;92.00;;;;;;10358854;28;20416;-66
2023/08/11 17:08:21;;;;;;;6.60;4.53;;;25.60;92.00;;;;;;10363162;28;20843;-66
2023/08/11 17:13:22;;;;;;;6.03;4.35;;;25.60;92.00;;;;;;10364105;28;20446;-66
2023/08/11 17:18:22;;;;;;;5.13;4.43;;;25.60;92.10;;;;;;10363329;28;20424;-66
2023/08/11 17:23:23;;;;;;;6.03;4.63;;;25.50;92.10;;;;;;10362198;28;20753;-67
2023/08/11 17:28:24;;;;;;;5.82;4.35;;;25.50;92.20;;;;;;10360524;28;20396;-66
2023/08/11 17:33:24;;;;;;;7.37;4.30;;;25.40;92.20;;;;;;10363122;28;20780;-66
2023/08/11 17:38:25;;;;;;;5.37;4.40;;;25.40;92.20;;;;;;10361459;28;20421;-66
2023/08/11 17:43:26;;;;;;;5.13;4.43;;;25.40;92.20;;;;;;10360137;28;20399;-66
2023/08/11 17:48:26;;;;;;;5.13;4.43;;;25.30;92.20;;;;;;10361129;28;20411;-66
2023/08/11 17:53:27;;;;;;;6.27;4.60;;;25.20;92.30;;;;;;10359917;28;20432;-66
2023/08/11 17:58:28;;;;;;;6.10;4.20;;;25.20;92.30;;;;;;10349232;28;20536;-67
2023/08/11 18:03:28;;;;;;;5.47;4.60;;;25.20;92.40;;;;;;10360111;28;20401;-65
2023/08/11 18:08:29;;;;;;;5.55;4.53;;;25.20;92.40;;;;;;10369888;28;20454;-66
2023/08/11 18:13:29;;;;;;;5.23;4.27;;;25.10;92.50;;;;;;10364691;28;20861;-65
2023/08/11 18:18:32;;;;;;;6.13;4.23;;;25.10;92.50;;;;;;10367587;28;20413;-66
2023/08/11 18:23:32;;;;;;;5.18;4.65;;;25.00;92.60;;;;;;10361953;28;20429;-68
2023/08/11 18:28:33;;;;;;;6.27;4.80;;;25.00;92.60;;;;;;10356342;28;20757;-68
2023/08/11 18:33:33;;;;;;;6.23;4.80;;;25.00;92.70;;;;;;10361945;28;20404;-67
2023/08/11 18:38:34;;;;;;;6.33;4.73;;;24.90;92.70;;;;;;10365933;28;20512;-68
2023/08/11 18:43:35;;;;;;;5.60;4.38;;;24.90;92.70;;;;;;10369115;28;20483;-68
2023/08/11 18:48:35;;;;;;;6.27;4.90;;;24.90;92.80;;;;;;10365594;28;20407;-68
2023/08/11 18:53:36;;;;;;;5.73;4.90;;;24.80;92.70;;;;;;10364450;28;20412;-68
2023/08/11 18:58:37;;;;;;;5.63;5.03;;;24.80;92.80;;;;;;10362539;28;20423;-67
2023/08/11 19:03:37;;;;;;;5.88;4.93;;;24.70;92.80;;;;;;10364792;28;20407;-66
2023/08/11 19:08:38;;;;;;;5.93;4.70;;;24.70;92.80;;;;;;10368340;28;20404;-66
2023/08/11 19:13:39;;;;;;;5.43;4.90;;;24.70;92.80;;;;;;10366695;28;20467;-66
2023/08/11 19:18:39;;;;;;;6.17;5.20;;;24.70;92.80;;;;;;10367934;28;20420;-66
2023/08/11 19:23:40;;;;;;;5.73;5.00;;;24.60;92.80;;;;;;10366973;28;20497;-65
2023/08/11 19:28:41;;;;;;;5.90;5.13;;;24.60;92.90;;;;;;10371868;28;20680;-65
2023/08/11 19:33:42;;;;;;;5.70;5.10;;;24.50;92.90;;;;;;10367477;28;20416;-66
2023/08/11 19:38:44;;;;;;;5.83;5.23;;;24.50;92.90;;;;;;10355917;28;20420;-66
2023/08/11 19:43:45;;;;;;;5.80;5.20;;;24.50;92.90;;;;;;10370848;28;20927;-67
2023/08/11 19:48:45;;;;;;;5.70;5.10;;;24.40;92.90;;;;;;10361624;28;20412;-65
2023/08/11 19:53:46;;;;;;;6.93;5.67;;;24.40;92.90;;;;;;10368004;28;20439;-66
2023/08/11 19:58:47;;;;;;;6.57;5.40;;;24.40;92.90;;;;;;10367205;28;20412;-65
2023/08/11 20:03:47;;;;;;;6.00;5.40;;;24.40;93.00;;;;;;10368036;28;21006;-64
2023/08/11 20:08:48;;;;;;;6.33;5.53;;;24.30;93.00;;;;;;10350746;28;20408;-65
2023/08/11 20:13:48;;;;;;;6.22;5.35;;;24.30;93.00;;;;;;10363661;28;20416;-66
2023/08/11 20:18:49;;;;;;;6.38;5.50;;;24.30;93.00;;;;;;10363559;28;20413;-65
2023/08/11 20:23:50;;;;;;;6.90;5.30;;;24.20;93.00;;;;;;10362287;28;20500;-65
2023/08/11 20:28:51;;;;;;;6.03;5.43;;;24.20;93.00;;;;;;10365991;28;20408;-65
2023/08/11 20:33:51;;;;;;;6.67;5.97;;;24.20;93.00;;;;;;10361607;28;20411;-66
2023/08/11 20:38:52;;;;;;;6.07;5.33;;;24.20;93.00;;;;;;10366809;28;20416;-66
2023/08/11 20:43:53;;;;;;;6.37;5.77;;;24.20;93.00;;;;;;10366572;28;20420;-66
2023/08/11 20:48:53;;;;;;;6.00;5.40;;;24.10;93.00;;;;;;10352522;28;20503;-66
2023/08/11 20:53:54;;;;;;;6.68;5.47;;;24.10;93.00;;;;;;10364950;28;20412;-64
2023/08/11 20:58:54;;;;;;;6.17;5.57;;;24.10;93.10;;;;;;10363839;28;20423;-65
2023/08/11 21:04:03;;;;;;;6.27;5.60;;;24.10;93.10;;;;;;10361847;28;20947;-65
2023/08/11 21:09:04;;;;;;;6.90;5.40;;;24.00;93.10;;;;;;10362568;28;20402;-66
2023/08/11 21:14:09;;;;;;;5.97;5.37;;;24.00;93.10;;;;;;10363670;28;20387;-65
2023/08/11 21:19:09;;;;;;;5.85;5.13;;;24.00;93.10;;;;;;10344510;28;20799;-64
2023/08/11 21:24:10;;;;;;;6.47;5.80;;;24.00;93.10;;;;;;10359830;28;20413;-65
2023/08/11 21:29:11;;;;;;;7.25;6.20;;;23.90;93.10;;;;;;10344265;28;20421;-65
2023/08/11 21:34:12;;;;;;;6.97;5.40;;;23.90;93.10;;;;;;10348228;28;20507;-64
2023/08/11 21:39:12;;;;;;;7.00;5.70;;;23.90;93.20;;;;;;10358260;28;20427;-66
2023/08/11 21:44:15;;;;;;;6.88;5.60;;;23.80;93.20;;;;;;10350914;28;20920;-66
2023/08/11 21:49:16;;;;;;;6.43;5.80;;;23.80;93.20;;;;;;10361011;28;20500;-65
2023/08/11 21:54:17;;;;;;;6.72;5.72;;;23.80;93.20;;;;;;10361901;28;20463;-65
2023/08/11 21:59:18;;;;;;;7.22;5.90;;;23.80;93.30;;;;;;10359575;28;20409;-66
2023/08/11 22:04:18;;;;;;;6.65;5.97;;;23.70;93.20;;;;;;10358117;28;20970;-64
2023/08/11 22:09:19;;;;;;;6.35;5.65;;;23.70;93.30;;;;;;10358286;28;20406;-68
2023/08/11 22:14:21;;;;;;;6.50;5.80;;;23.70;93.30;;;;;;10354398;28;20965;-68
2023/08/11 22:19:22;;;;;;;6.30;5.70;;;23.70;93.30;;;;;;10340984;28;20990;-67
2023/08/11 22:24:23;;;;;;;6.37;5.77;;;23.70;93.40;;;;;;10354576;28;20478;-68
2023/08/11 22:29:24;;;;;;;6.60;5.75;;;23.60;93.40;;;;;;10349633;28;20475;-67
2023/08/11 22:34:24;;;;;;;6.17;5.43;;;23.60;93.40;;;;;;10340280;28;20900;-68
2023/08/11 22:39:25;;;;;;;6.75;5.65;;;23.60;93.40;;;;;;10353698;28;20428;-67
2023/08/11 22:44:26;;;;;;;6.35;5.75;;;23.60;93.40;;;;;;10355755;28;21362;-66
2023/08/11 22:49:27;;;;;;;6.50;5.80;;;23.60;93.50;;;;;;10358243;28;20432;-68
2023/08/11 22:54:29;;;;;;;6.70;5.70;;;23.50;93.50;;;;;;10341321;28;20405;-67
2023/08/11 22:59:30;;;;;;;6.40;5.50;;;23.50;93.50;;;;;;10354949;28;20439;-66
2023/08/11 23:04:30;;;;;;;6.77;5.47;;;23.40;93.50;;;;;;10341846;28;20408;-67
2023/08/11 23:09:32;;;;;;;6.80;5.13;;;23.40;93.50;;;;;;10360847;28;20491;-67
2023/08/11 23:14:32;;;;;;;5.97;5.25;;;23.40;93.50;;;;;;10359030;28;20408;-68
2023/08/11 23:19:33;;;;;;;6.35;5.57;;;23.40;93.60;;;;;;10359485;28;20856;-68
2023/08/11 23:24:34;;;;;;;6.28;5.40;;;23.40;93.60;;;;;;10360080;28;20408;-68
2023/08/11 23:29:34;;;;;;;6.60;5.30;;;23.40;93.60;;;;;;10353396;28;21072;-67
2023/08/11 23:34:35;;;;;;;6.80;5.40;;;23.40;93.70;;;;;;10359217;28;20405;-66
2023/08/11 23:39:36;;;;;;;6.03;5.43;;;23.30;93.70;;;;;;10344626;28;20401;-68
2023/08/11 23:44:36;;;;;;;5.77;5.07;;;23.30;93.70;;;;;;10357417;28;20430;-68
2023/08/11 23:49:42;;;;;;;5.60;4.95;;;23.30;93.80;;;;;;10357371;28;20698;-68
2023/08/11 23:54:52;;;;;;;5.47;4.95;;;23.30;93.80;;;;;;10359457;28;20420;-67
2023/08/11 23:59:52;;;;;;;5.80;5.20;;;23.20;93.80;;;;;;10363611;28;20440;-67
